Tiempo atmosférico en la estación meteorológica de Hijar, Teruel (300 m.)



Fecha
DESCASC
Temp. máxima en grados centígrados (hora)
DESCASC
Temp. mínima en grados centígrados (hora)
DESCASC
Temp. media en grados centígrados
DESCASC
Racha de viento máxima en m/sg (hora)
DESCASC
Velocidad máxima media en intervalos de 10 minutos(hora)
DESCASC
Precipitaciones diarias en mm
DESCASC
Precipitaciones de 00:00 a 06:00 en mm
DESCASC
Precipitaciones de 06:00 a 12:00 en mm
DESCASC
Precipitaciones de 12:00 a 18:00 en mm
DESCASC
Precipitaciones de 18:00 a 24:00 en mm
DESCASC
31-03-2020 5.1 (00:00) 0.9 (05:00) 3 2.78 (00:10) 1.67 (03:50) 6 2.8 0.2 2.8 0.2
29-03-2020 20.7 (15:30) 6.4 (00:00) 13.6 11.11 (22:10) 5.83 (23:40) 0 0 0 0 0
28-03-2020 18.9 (14:20) 6.6 (00:00) 12.7 5.83 (23:10) 4.44 (23:10) 0 0 0 0 0
27-03-2020 14.7 (15:40) 1.7 (00:00) 8.2 5 (15:20) 3.06 (05:50) 0 0 0 0 0
26-03-2020 15.6 (16:10) 3 (00:00) 9.3 15.28 (10:30) 6.94 (18:00) 0 0 0 0 0
25-03-2020 12.4 (16:30) 4.7 (00:00) 8.5 7.5 (10:30) 5 (10:30) 1.8 1.2 0.6 0 0
24-03-2020 15.7 (13:50) 8.4 (00:00) 12 7.78 (16:40) 5.28 (15:50) 0 0 0 0 0
23-03-2020 15.8 (16:20) 8.8 (00:00) 12.3 8.61 (17:10) 6.11 (17:10) 5.8 0.2 2.4 3.2 0
22-03-2020 13.9 (11:00) 7.4 (04:00) 10.6 7.5 (17:30) 5.28 (17:40) 0 0 0 0 0
21-03-2020 17.4 (15:20) 3.4 (00:00) 10.4 6.67 (00:40) 3.89 (20:00) 0 0 0 0 0
20-03-2020 15.9 (16:20) 3.4 (00:00) 9.6 9.72 (16:40) 6.94 (16:40) 0 0 0 0 0
19-03-2020 17.3 (15:00) 6.6 (00:00) 11.9 9.17 (16:50) 6.67 (16:40) 0 0 0 0 0
18-03-2020 16 (15:00) 7.7 (00:00) 11.8 4.44 (15:10) 2.78 (15:10) 0 0 0 0 0
17-03-2020 15.4 (16:10) 8.8 (00:00) 12.1 10 (16:20) 7.5 (16:10) 1.2 1.2 0 0 0
16-03-2020 14.8 (00:00) 6.3 (00:00) 10.6 13.61 (00:10) 6.94 (12:00) 23.2 5.4 1 6.2 10.6
15-03-2020 20.4 (16:10) 3.9 (00:00) 12.1 15.56 (23:10) 10.28 (23:10) 0.2 0 0 0 0.2
14-03-2020 22 (16:20) 7.3 (00:00) 14.7 6.94 (12:50) 4.17 (07:00) 0 0 0 0 0
13-03-2020 20.5 (15:30) 10.4 (06:50) 15.4 7.78 (22:30) 3.89 (05:30) 0 0 0 0 0
12-03-2020 25 (16:50) 9.1 (00:00) 17.1 8.89 (22:10) 4.17 (21:40) 0 0 0 0 0
11-03-2020 26.7 (14:50) 10.6 (00:00) 18.7 6.94 (04:10) 5.28 (04:10) 0 0 0 0 0
10-03-2020 25.3 (16:00) 8.7 (00:00) 17 12.5 (04:40) 8.33 (04:40) 0 0 0 0 0
09-03-2020 16.7 (14:10) 9 (00:00) 12.9 15 (15:50) 7.5 (23:30) 0 0 0 0 0
08-03-2020 22.3 (14:40) 3.8 (00:00) 13 9.17 (00:10) 5.83 (23:59) 0 0 0 0 0
07-03-2020 16.7 (16:20) 5.6 (00:00) 11.2 18.61 (13:30) 9.72 (08:40) 0 0 0 0 0
06-03-2020 12.4 (15:10) 5.6 (00:00) 9 20 (13:40) 8.89 (09:30) 1.4 0 1.4 0 0
05-03-2020 20.9 (12:20) 8.9 (00:00) 14.9 24.72 (13:50) 14.44 (14:30) 0 0 0 0 0
04-03-2020 23.2 (16:00) 8.2 (07:20) 15.7 11.11 (16:30) 5.83 (16:30) 0 0 0 0 0

Gráficas

Temp. máximas Temp. mínimas Temp. medias Precipitaciones Rachas de viento máximas Velocidades máximas media en intervalos de 10 minutos

Datos horarios

Fecha y hora oficial Temperatura (ºC) Velocidad del viento (km/h) Dirección del viento Racha (km/h) Dirección de racha Precipitación (mm) Presión (hPa) Tendencia (hPa) Humedad (%)
2020-04-02 23:00:00 11.4 9 Noroeste 29 Oeste 0 -- -- 70
2020-04-02 22:00:00 12.2 14 Oeste 22 Oeste 0 -- -- 76
2020-04-02 21:00:00 12.4 7 Sudoeste 14 Oeste 0 -- -- 77
2020-04-02 20:00:00 13.7 5 Oeste 12 Oeste 0 -- -- 72
2020-04-02 19:00:00 15.5 4 Noroeste 15 Oeste 0 -- -- 65
2020-04-02 18:00:00 16.4 5 Oeste 12 Oeste 0 -- -- 63
2020-04-02 17:00:00 14.6 4 Noroeste 14 Norte 0 -- -- 73
2020-04-02 16:00:00 13.9 4 Noroeste 20 Noroeste 0 -- -- 74
2020-04-02 15:00:00 12.6 3 Norte 11 Noroeste 0 -- -- 81
2020-04-02 14:00:00 12.9 3 Noroeste 12 Oeste 0 -- -- 82
2020-04-02 13:00:00 11.2 3 Noroeste 11 Norte 0 -- -- 92
2020-04-02 12:00:00 9.7 3 Noroeste 13 Norte 0 -- -- 96
2020-04-02 11:00:00 8.9 0 Calma 6 Noroeste 0 -- -- 97
2020-04-02 10:00:00 8.6 0 Calma 6 Norte 0.6 -- -- 97
2020-04-02 09:00:00 8.5 0 Calma 4 Norte 0.2 -- -- 97
2020-04-02 08:00:00 8.3 2 Sudoeste 3 Sudoeste 0 -- -- 96
2020-04-02 07:00:00 8.4 0 Calma 2 Oeste 0 -- -- 96
2020-04-02 06:00:00 8.5 0 Calma 3 Noroeste 0 -- -- 97
2020-04-02 05:00:00 8.4 0 Calma 5 Oeste 0 -- -- 97
2020-04-02 04:00:00 8.4 4 Oeste 7 Oeste 0 -- -- 97
2020-04-02 03:00:00 8.7 3 Oeste 4 Oeste 0 -- -- 96
2020-04-02 02:00:00 8.8 0 Calma 5 Oeste 0 -- -- 96
2020-04-02 01:00:00 8.8 4 Oeste 6 Oeste 0 -- -- 96
2020-04-02 00:00:00 9 0 Calma 3 Sudeste 0 -- -- 95
2020-04-01 23:00:00 9.1 2 Sur 6 Nordeste 0 -- -- 95
2020-04-01 22:00:00 9.3 6 Nordeste 13 Nordeste 0.2 -- -- 94
2020-04-01 21:00:00 9.8 2 Norte 3 Este 0 -- -- 91
2020-04-01 20:00:00 10.1 0 Calma 5 Nordeste 0 -- -- 91
2020-04-01 19:00:00 10.3 0 Calma 5 Nordeste 0 -- -- 91
2020-04-01 18:00:00 10.3 2 Nordeste 10 Nordeste 0 -- -- 93
2020-04-01 17:00:00 10 3 Norte 9 Nordeste 0 -- -- 96
2020-04-01 16:00:00 9.7 2 Norte 8 Noroeste 0.2 -- -- 97
2020-04-01 15:00:00 9.1 4 Nordeste 8 Nordeste 1.8 -- -- 98
2020-04-01 14:00:00 9 2 Norte 8 Oeste 2.6 -- -- 98
2020-04-01 13:00:00 8.1 4 Oeste 8 Oeste 3 -- -- 98
2020-04-01 12:00:00 7.3 4 Oeste 9 Oeste 1.2 -- -- 98
2020-04-01 11:00:00 6.7 5 Sudoeste 7 Sudoeste 0.8 -- -- 98
2020-04-01 10:00:00 6.2 3 Oeste 10 Sudoeste 1.2 -- -- 98
2020-04-01 09:00:00 5.9 3 Oeste 4 Oeste 1 -- -- 98
2020-04-01 08:00:00 5.6 2 Oeste 9 Sudoeste 0.8 -- -- 97
2020-04-01 07:00:00 5.3 8 Sudoeste 11 Sudoeste 0 -- -- 97
2020-04-01 06:00:00 5.2 3 Sudoeste 6 Sudoeste 0 -- -- 97
2020-04-01 05:00:00 5.1 0 Calma 4 Nordeste 0 -- -- 97
2020-04-01 04:00:00 4.8 0 Calma 4 Oeste 0.2 -- -- 97
2020-04-01 03:00:00 4.9 0 Calma 2 Sudoeste 0 -- -- 96
2020-04-01 02:00:00 4.8 0 Calma 3 Este 0 -- -- 96
2020-04-01 01:00:00 4.7 0 Calma 3 Nordeste 0 -- -- 96
2020-04-01 00:00:00 4.6 3 Nordeste 4 Nordeste 0 -- -- 95
2020-03-31 23:00:00 4.6 0 Calma 3 Este 0 -- -- 95
2020-03-31 22:00:00 4.5 0 Calma 3 Nordeste 0 -- -- 95
2020-03-31 21:00:00 4.4 0 Calma 3 Nordeste 0 -- -- 94
2020-03-31 20:00:00 4.4 0 Calma 5 Nordeste 0 -- -- 94
2020-03-31 19:00:00 4.5 0 Calma 2 Norte 0.2 -- -- 94
2020-03-31 18:00:00 4.4 0 Calma 3 Noroeste 0 -- -- 94
2020-03-31 17:00:00 4.2 0 Calma 5 Norte 2.2 -- -- 94
2020-03-31 16:00:00 4 0 Calma 6 Norte 0.4 -- -- 93
2020-03-31 15:00:00 3.9 0 Calma 7 Noroeste 0 -- -- 94
2020-03-31 14:00:00 3.8 2 Noroeste 6 Norte 0.2 -- -- 94
2020-03-31 13:00:00 3.6 0 Calma 4 Oeste 0 -- -- 94
2020-03-31 12:00:00 3.2 2 Oeste 5 Oeste 0 -- -- 94
2020-03-31 11:00:00 3 0 Calma 4 Oeste 0 -- -- 95
2020-03-31 10:00:00 2.4 0 Calma 3 Norte 0.2 -- -- 95
2020-03-31 09:00:00 1.8 0 Calma 3 Norte 0 -- -- 95
2020-03-31 08:00:00 1.6 0 Calma 2 Norte 0 -- -- 95
2020-03-31 07:00:00 1.4 0 Calma 3 Norte 0 -- -- 94
2020-03-31 06:00:00 1.1 0 Calma 2 Sudoeste 0.2 -- -- 94
2020-03-31 05:00:00 0.9 2 Sudoeste 6 Oeste 1 -- -- 93
2020-03-31 04:00:00 1.7 6 Oeste 9 Oeste 0.8 -- -- 93
2020-03-31 03:00:00 2.8 6 Sudoeste 8 Sudoeste 0.6 -- -- 88
2020-03-31 02:00:00 3.9 0 Calma 8 Noroeste 0.2 -- -- 82
2020-03-31 01:00:00 4.6 0 Calma 10 Oeste 0 -- -- 70
2020-03-31 00:00:00 5.1 5 Sudoeste 15 Oeste 0 -- -- 64
2020-03-30 23:00:00 5.3 3 Oeste 13 Oeste 0 -- -- 60
2020-03-30 22:00:00 5.3 9 Sudoeste 15 Oeste 0 -- -- 68
2020-03-30 21:00:00 4.9 8 Sudoeste 18 Oeste 0 -- -- 73
2020-03-30 20:00:00 4.9 13 Sudoeste 30 Oeste 0 -- -- 74
2020-03-30 19:00:00 7.5 11 Noroeste 27 Noroeste 0 -- -- 51
2020-03-30 18:00:00 9 7 Noroeste 24 Noroeste 0 -- -- 44
2020-03-30 17:00:00 10.2 7 Noroeste 21 Noroeste 0 -- -- 42
2020-03-30 16:00:00 10.8 6 Noroeste 27 Oeste 0 -- -- 42
2020-03-30 15:00:00 10.2 10 Noroeste 32 Oeste 0 -- -- 47
2020-03-30 14:00:00 9.8 10 Noroeste 36 Oeste 0 -- -- 46
2020-03-30 13:00:00 8.6 14 Noroeste 39 Oeste 0 -- -- 47
2020-03-30 12:00:00 6.7 21 Oeste 39 Oeste 0 -- -- 51
2020-03-30 11:00:00 6.2 14 Noroeste 41 Noroeste 0 -- -- 48
2020-03-30 10:00:00 5.6 14 Noroeste 39 Noroeste 0 -- -- 57
2020-03-30 09:00:00 5.5 17 Noroeste 35 Oeste 0 -- -- 58
2020-03-30 08:00:00 5.3 15 Oeste 43 Oeste 0 -- -- 59
2020-03-30 07:00:00 5.9 19 Oeste 35 Oeste 0 -- -- 63
2020-03-30 06:00:00 6.4 10 Noroeste 44 Noroeste 0 -- -- 64
2020-03-30 05:00:00 7.2 14 Oeste 35 Oeste 0 -- -- 68
2020-03-30 04:00:00 7.6 21 Oeste 38 Oeste 0 -- -- 70
2020-03-30 03:00:00 8.3 26 Oeste 43 Noroeste 0 -- -- 71
2020-03-30 02:00:00 8.7 22 Oeste 37 Oeste 0 -- -- 71
2020-03-30 01:00:00 8.9 17 Oeste 31 Oeste 0 -- -- 69
2020-03-30 00:00:00 9.4 18 Oeste 33 Oeste 0 -- -- 67
2020-03-29 23:00:00 10 15 Oeste 40 Oeste 0 -- -- 63
2020-03-29 22:00:00 10.7 18 Oeste 35 Oeste 0 -- -- 60
2020-03-29 21:00:00 11.7 12 Noroeste 33 Noroeste 0 -- -- 58
2020-03-29 20:00:00 14.1 11 Noroeste 36 Noroeste 0 -- -- 53
2020-03-29 19:00:00 16.5 11 Noroeste 34 Norte 0 -- -- 43
2020-03-29 18:00:00 19.2 10 Noroeste 33 Noroeste 0 -- -- 36
2020-03-29 17:00:00 19.9 9 Noroeste 35 Norte 0 -- -- 31
2020-03-29 16:00:00 20.5 11 Noroeste 36 Norte 0 -- -- 27
2020-03-29 15:00:00 20.6 12 Noroeste 31 Oeste 0 -- -- 31
2020-03-29 14:00:00 19.9 9 Noroeste 34 Norte 0 -- -- 33
2020-03-29 13:00:00 18.3 6 Noroeste 30 Oeste 0 -- -- 33
2020-03-29 12:00:00 16.3 8 Noroeste 20 Noroeste 0 -- -- 40
2020-03-29 11:00:00 14.9 8 Noroeste 28 Noroeste 0 -- -- 43
2020-03-29 10:00:00 12.4 10 Oeste 21 Oeste 0 -- -- 55
2020-03-29 09:00:00 8.8 12 Sudoeste 18 Sudoeste 0 -- -- 64
2020-03-29 08:00:00 7.8 11 Sudoeste 15 Sudoeste 0 -- -- 68
2020-03-29 07:00:00 6.8 12 Sudoeste 17 Sudoeste 0 -- -- 73
2020-03-29 06:00:00 6.5 13 Sudoeste 17 Sudoeste 0 -- -- 76
2020-03-29 05:00:00 7.1 12 Sudoeste 20 Sudoeste 0 -- -- 76
2020-03-29 03:00:00 8.3 3 Oeste 19 Sudoeste 0 -- -- 72
2020-03-29 01:00:00 10.3 14 Sudoeste 21 Sudoeste 0 -- -- 62
2020-03-29 00:00:00 10.9 15 Sudoeste 21 Sudoeste 0 -- -- 61
2020-03-28 23:00:00 9.8 15 Sudoeste 20 Sudoeste 0 -- -- 67
2020-03-28 22:00:00 9.6 15 Sudoeste 19 Sudoeste 0 -- -- 70
2020-03-28 21:00:00 10.6 10 Sudoeste 14 Sudoeste 0 -- -- 66
2020-03-28 20:00:00 12.9 4 Sur 6 Sur 0 -- -- 55
2020-03-28 19:00:00 15 3 Sur 5 Sudoeste 0 -- -- 51
2020-03-28 18:00:00 16 0 Calma 10 Este 0 -- -- 44
2020-03-28 17:00:00 17.1 4 Este 17 Nordeste 0 -- -- 43
2020-03-28 16:00:00 17.8 6 Nordeste 14 Este 0 -- -- 40
2020-03-28 15:00:00 18.2 4 Nordeste 15 Nordeste 0 -- -- 42
2020-03-28 14:00:00 18.3 4 Noroeste 14 Norte 0 -- -- 40
2020-03-28 13:00:00 16.4 5 Norte 13 Noroeste 0 -- -- 45
2020-03-28 12:00:00 15.5 4 Norte 13 Noroeste 0 -- -- 50
2020-03-28 11:00:00 14.1 4 Norte 11 Oeste 0 -- -- 53
2020-03-28 10:00:00 11.2 2 Noroeste 5 Noroeste 0 -- -- 62
2020-03-28 09:00:00 8.2 4 Sudoeste 12 Oeste 0 -- -- 74
2020-03-28 08:00:00 6.9 5 Sudoeste 10 Sudoeste 0 -- -- 79
2020-03-28 07:00:00 6.9 4 Sudoeste 9 Oeste 0 -- -- 76
2020-03-28 06:00:00 6.9 4 Sudoeste 5 Sudoeste 0 -- -- 78
2020-03-28 05:00:00 7.1 6 Sudoeste 9 Oeste 0 -- -- 75
2020-03-28 04:00:00 7.1 5 Sudoeste 12 Sudoeste 0 -- -- 76
2020-03-28 03:00:00 6.7 5 Sudoeste 9 Sudoeste 0 -- -- 78
2020-03-28 02:00:00 6.9 2 Este 10 Sudoeste 0 -- -- 78
2020-03-28 01:00:00 6.6 9 Sudoeste 14 Sudoeste 0 -- -- 76
2020-03-28 00:00:00 6.6 8 Sudoeste 13 Sudoeste 0 -- -- 75
2020-03-27 23:00:00 7 6 Sudoeste 10 Sudoeste 0 -- -- 74
2020-03-27 22:00:00 7.7 5 Sudoeste 9 Sudoeste 0 -- -- 70
2020-03-27 21:00:00 8.9 4 Sudoeste 6 Sudoeste 0 -- -- 63
2020-03-27 20:00:00 10.3 2 Nordeste 5 Norte 0 -- -- 57
2020-03-27 19:00:00 12.2 2 Norte 8 Noroeste 0 -- -- 49
2020-03-27 18:00:00 13.2 3 Nordeste 13 Nordeste 0 -- -- 42
2020-03-27 17:00:00 14 6 Nordeste 16 Nordeste 0 -- -- 42
2020-03-27 16:00:00 14.7 4 Nordeste 18 Este 0 -- -- 44
2020-03-27 15:00:00 14.4 5 Sudoeste 16 Este 0 -- -- 46
2020-03-27 14:00:00 12.8 4 Sur 13 Norte 0 -- -- 54
2020-03-27 13:00:00 11.8 6 Noroeste 13 Oeste 0 -- -- 56
2020-03-27 12:00:00 11.7 4 Noroeste 12 Noroeste 0 -- -- 56
2020-03-27 11:00:00 10.3 3 Oeste 10 Oeste 0 -- -- 62
2020-03-27 10:00:00 6.9 3 Noroeste 10 Noroeste 0 -- -- 73
2020-03-27 09:00:00 5.2 2 Noroeste 10 Noroeste 0 -- -- 79
2020-03-27 08:00:00 3.9 4 Sudoeste 11 Sudoeste 0 -- -- 82
2020-03-27 07:00:00 3.4 8 Sudoeste 11 Sudoeste 0 -- -- 83
2020-03-27 06:00:00 3.3 9 Sudoeste 14 Sudoeste 0 -- -- 84
2020-03-27 05:00:00 2.5 6 Sudoeste 12 Sudoeste 0 -- -- 88
2020-03-27 04:00:00 2.3 4 Sudoeste 9 Sudoeste 0 -- -- 91
2020-03-27 03:00:00 1.7 6 Sudoeste 10 Oeste 0 -- -- 93
2020-03-27 02:00:00 2.2 6 Sudoeste 10 Sudoeste 0 -- -- 90
2020-03-27 01:00:00 2.8 2 Sudoeste 6 Oeste 0 -- -- 91
2020-03-27 00:00:00 3 3 Sudoeste 9 Oeste 0 -- -- 89
2020-03-26 23:00:00 3.9 4 Sur 9 Este 0 -- -- 86
2020-03-26 22:00:00 4.9 9 Este 14 Este 0 -- -- 84
2020-03-26 21:00:00 5.9 8 Sudeste 16 Sudeste 0 -- -- 80
2020-03-26 20:00:00 7 12 Sudeste 23 Este 0 -- -- 76
2020-03-26 19:00:00 8.1 14 Este 36 Este 0 -- -- 71
2020-03-26 18:00:00 11.3 25 Sudeste 38 Este 0 -- -- 57
2020-03-26 17:00:00 14.9 7 Noroeste 30 Oeste 0 -- -- 32
2020-03-26 16:00:00 14.8 6 Noroeste 32 Norte 0 -- -- 34
2020-03-26 15:00:00 13.8 10 Noroeste 34 Norte 0 -- -- 39
2020-03-26 14:00:00 13.7 11 Noroeste 47 Noroeste 0 -- -- 38
2020-03-26 13:00:00 11.8 11 Noroeste 46 Noroeste 0 -- -- 50
2020-03-26 12:00:00 11 13 Noroeste 53 Noroeste 0 -- -- 58
2020-03-26 11:00:00 12.2 16 Noroeste 55 Noroeste 0 -- -- 54
2020-03-26 10:00:00 11.9 10 Noroeste 35 Oeste 0 -- -- 60
2020-03-26 09:00:00 9.7 10 Noroeste 29 Norte 0 -- -- 70
2020-03-26 08:00:00 6.6 9 Oeste 18 Oeste 0 -- -- 77
2020-03-26 07:00:00 6.1 9 Sudoeste 18 Sudoeste 0 -- -- 76
2020-03-26 06:00:00 5.1 12 Sudoeste 25 Oeste 0 -- -- 74
2020-03-26 05:00:00 4.5 13 Oeste 32 Oeste 0 -- -- 81
2020-03-26 04:00:00 5.7 19 Oeste 34 Oeste 0 -- -- 91
2020-03-26 03:00:00 3.9 9 Sudoeste 16 Oeste 0 -- -- 92
2020-03-26 02:00:00 4.5 11 Sudoeste 16 Sudoeste 0 -- -- 92
2020-03-26 01:00:00 4.6 8 Oeste 13 Sudoeste 0 -- -- 92
2020-03-26 00:00:00 4.7 4 Sudoeste 7 Sudoeste 0 -- -- 92
2020-03-25 23:00:00 5.8 2 Sudoeste 5 Sudoeste 0 -- -- 87
2020-03-25 22:00:00 6.6 2 Sudoeste 9 Este 0 -- -- 83
2020-03-25 21:00:00 7.6 4 Este 8 Este 0 -- -- 78
2020-03-25 20:00:00 8.3 5 Sudeste 10 Este 0 -- -- 77
2020-03-25 19:00:00 9.9 2 Nordeste 4 Este 0 -- -- 69
2020-03-25 18:00:00 10.9 0 Calma 9 Oeste 0 -- -- 63
2020-03-25 17:00:00 12.4 5 Oeste 12 Norte 0 -- -- 60
2020-03-25 16:00:00 11.4 4 Norte 17 Norte 0 -- -- 70
2020-03-25 15:00:00 10.8 4 Noroeste 16 Nordeste 0 -- -- 72
2020-03-25 14:00:00 9.5 12 Nordeste 27 Este 0 -- -- 76
2020-03-25 13:00:00 9.2 17 Este 25 Nordeste 0 -- -- 75
2020-03-25 12:00:00 8.3 15 Nordeste 24 Este 0 -- -- 80
2020-03-25 11:00:00 7.3 13 Este 27 Nordeste 0 -- -- 86
2020-03-25 10:00:00 7.2 13 Nordeste 24 Nordeste 0 -- -- 90
2020-03-25 09:00:00 7.1 13 Este 19 Este 0 -- -- 92
2020-03-25 08:00:00 7.2 10 Este 19 Sudeste 0.2 -- -- 92
2020-03-25 07:00:00 7.2 15 Este 21 Este 0.4 -- -- 93
2020-03-25 06:00:00 7.4 8 Este 15 Este 0.4 -- -- 93
2020-03-25 05:00:00 7.5 9 Este 17 Este 0.4 -- -- 93
2020-03-25 04:00:00 7.9 11 Este 17 Este 0.4 -- -- 91
2020-03-25 03:00:00 8.5 8 Este 14 Sudeste 0 -- -- 86
2020-03-25 02:00:00 9 10 Este 14 Este 0 -- -- 82
2020-03-25 01:00:00 9.1 6 Sudeste 13 Este 0 -- -- 82
2020-03-25 00:00:00 9.3 8 Este 12 Este 0 -- -- 77
2020-03-24 23:00:00 9.6 5 Sur 10 Sudeste 0 -- -- 73
2020-03-24 22:00:00 9.3 3 Sudeste 9 Este 0 -- -- 78
2020-03-24 21:00:00 10.3 6 Sur 20 Sur 0 -- -- 71
2020-03-24 20:00:00 10.5 10 Sur 17 Sudeste 0 -- -- 73
2020-03-24 19:00:00 12.5 4 Sudeste 17 Sur 0 -- -- 66
2020-03-24 18:00:00 13.8 12 Sur 23 Sudeste 0 -- -- 59
2020-03-24 17:00:00 14.1 17 Sudeste 28 Sudeste 0 -- -- 60
2020-03-24 16:00:00 13.8 16 Sudeste 25 Este 0 -- -- 62
2020-03-24 15:00:00 14.2 15 Este 25 Este 0 -- -- 59
2020-03-24 14:00:00 15.5 15 Este 23 Este 0 -- -- 58
2020-03-24 13:00:00 14.3 16 Este 24 Este 0 -- -- 62
2020-03-24 12:00:00 14 14 Este 24 Este 0 -- -- 66
2020-03-24 11:00:00 11.5 13 Este 23 Nordeste 0 -- -- 80
2020-03-24 10:00:00 10.6 13 Este 19 Nordeste 0 -- -- 87
2020-03-24 09:00:00 9.3 3 Nordeste 9 Nordeste 0 -- -- 95
2020-03-24 08:00:00 8.7 3 Nordeste 7 Nordeste 0 -- -- 96
2020-03-24 07:00:00 8.4 2 Nordeste 8 Este 0 -- -- 95
2020-03-24 06:00:00 8.4 5 Nordeste 10 Este 0 -- -- 94
2020-03-24 05:00:00 9 7 Nordeste 10 Nordeste 0 -- -- 93
2020-03-24 04:00:00 9.2 0 Calma 10 Este 0 -- -- 93
2020-03-24 03:00:00 9.1 7 Este 11 Este 0 -- -- 93
2020-03-24 02:00:00 9.1 0 Calma 4 Nordeste 0 -- -- 95
2020-03-24 01:00:00 9.2 0 Calma 5 Este 0 -- -- 94
2020-03-24 00:00:00 9.4 3 Nordeste 15 Este 0 -- -- 93
2020-03-23 23:00:00 10.3 8 Este 11 Este 0 -- -- 93
2020-03-23 22:00:00 10.9 3 Norte 6 Este 0 -- -- 92
2020-03-23 21:00:00 10.9 3 Nordeste 11 Este 0 -- -- 91
2020-03-23 20:00:00 11.4 10 Este 18 Este 0 -- -- 89
2020-03-23 19:00:00 12.4 15 Este 28 Este 0 -- -- 82
2020-03-23 18:00:00 14.2 16 Este 31 Sudeste 0 -- -- 73
2020-03-23 17:00:00 15.2 16 Este 27 Este 0.2 -- -- 69
2020-03-23 16:00:00 15.3 17 Este 28 Este 0 -- -- 72
2020-03-23 15:00:00 15.2 6 Este 17 Este 0 -- -- 72
2020-03-23 14:00:00 13.1 2 Norte 7 Sudoeste 0 -- -- 84
2020-03-23 13:00:00 11.5 5 Oeste 9 Oeste 3 -- -- 93
2020-03-23 12:00:00 11.4 0 Calma 5 Nordeste 1.6 -- -- 92
2020-03-23 11:00:00 11.3 0 Calma 6 Sur 0.8 -- -- 94
2020-03-23 10:00:00 10.8 3 Sur 5 Sur 0 -- -- 91
2020-03-23 09:00:00 9.9 0 Calma 4 Norte 0 -- -- 95
2020-03-23 08:00:00 9.5 0 Calma 2 Norte 0 -- -- 96
2020-03-23 07:00:00 9 0 Calma 6 Oeste 0 -- -- 95
2020-03-23 06:00:00 8.8 3 Sudoeste 5 Sudoeste 0 -- -- 95
2020-03-23 05:00:00 8.9 3 Sudoeste 4 Sudoeste 0 -- -- 95
2020-03-23 04:00:00 8.8 0 Calma 4 Oeste 0 -- -- 94
2020-03-23 03:00:00 9.1 3 Sudoeste 4 Sudoeste 0 -- -- 93
2020-03-23 02:00:00 9.5 0 Calma 3 Norte 0.2 -- -- 91
2020-03-23 01:00:00 9.7 0 Calma 9 Este 0 -- -- 88
2020-03-23 00:00:00 9.8 6 Sudeste 13 Este 0 -- -- 86
2020-03-22 23:00:00 10 9 Sudeste 13 Este 0 -- -- 87
2020-03-22 22:00:00 10 10 Este 13 Este 0 -- -- 87
2020-03-22 21:00:00 10.6 5 Este 10 Nordeste 0 -- -- 86
2020-03-22 20:00:00 10.9 5 Este 13 Este 0 -- -- 85
2020-03-22 19:00:00 11.6 10 Sudeste 22 Sudeste 0 -- -- 79
2020-03-22 18:00:00 12.1 16 Sudeste 27 Sudeste 0 -- -- 76
2020-03-22 17:00:00 13.4 18 Este 24 Este 0 -- -- 68
2020-03-22 16:00:00 13.3 15 Este 21 Este 0 -- -- 68
2020-03-22 15:00:00 13 8 Sudeste 15 Sur 0 -- -- 72
2020-03-22 14:00:00 13 9 Sudeste 16 Este 0 -- -- 71
2020-03-22 13:00:00 13.7 9 Sudeste 15 Sudeste 0 -- -- 68
2020-03-22 12:00:00 12.9 9 Este 15 Nordeste 0 -- -- 70
2020-03-22 11:00:00 13.9 6 Este 12 Nordeste 0 -- -- 65
2020-03-22 10:00:00 12.3 3 Oeste 8 Sudoeste 0 -- -- 72
2020-03-22 09:00:00 9.5 2 Sudoeste 4 Oeste 0 -- -- 86
2020-03-22 08:00:00 8 2 Sudoeste 6 Oeste 0 -- -- 93
2020-03-22 07:00:00 7.4 0 Calma 5 Oeste 0 -- -- 94
2020-03-22 06:00:00 7.5 3 Oeste 4 Oeste 0 -- -- 93
2020-03-22 05:00:00 7.6 0 Calma 4 Sudoeste 0 -- -- 93
2020-03-22 04:00:00 7.4 3 Sudoeste 5 Oeste 0 -- -- 91
2020-03-22 03:00:00 7.5 0 Calma 3 Sudoeste 0 -- -- 89
2020-03-22 02:00:00 8 3 Nordeste 9 Nordeste 0 -- -- 88
2020-03-22 01:00:00 8.5 5 Nordeste 12 Nordeste 0 -- -- 85
2020-03-22 00:00:00 9.9 6 Nordeste 16 Sudeste 0 -- -- 83
2020-03-21 23:00:00 10.4 9 Sudeste 15 Sudeste 0 -- -- 81
2020-03-21 22:00:00 11.2 7 Nordeste 21 Sudeste 0 -- -- 76
2020-03-21 21:00:00 12.4 12 Sudeste 20 Sudeste 0 -- -- 71
2020-03-21 20:00:00 13.2 14 Sudeste 20 Sudeste 0 -- -- 62
2020-03-21 19:00:00 14.2 5 Nordeste 14 Nordeste 0 -- -- 58
2020-03-21 18:00:00 15.3 10 Nordeste 21 Nordeste 0 -- -- 54
2020-03-21 17:00:00 16.8 9 Nordeste 19 Nordeste 0 -- -- 52
2020-03-21 16:00:00 17.2 8 Nordeste 22 Nordeste 0 -- -- 50
2020-03-21 15:00:00 16.8 11 Este 21 Este 0 -- -- 51
2020-03-21 14:00:00 16.6 6 Nordeste 19 Este 0 -- -- 54
2020-03-21 13:00:00 14.9 12 Este 21 Este 0 -- -- 60
2020-03-21 12:00:00 13.9 8 Nordeste 16 Nordeste 0 -- -- 63
2020-03-21 11:00:00 12.5 4 Este 10 Este 0 -- -- 72
2020-03-21 10:00:00 10.3 2 Norte 10 Sudoeste 0 -- -- 76
2020-03-21 09:00:00 6.4 6 Sudoeste 12 Sudoeste 0 -- -- 92
2020-03-21 08:00:00 4 7 Sudoeste 10 Oeste 0 -- -- 96
2020-03-21 07:00:00 3.6 3 Sudoeste 8 Sudoeste 0 -- -- 96
2020-03-21 06:00:00 3.6 5 Sudoeste 10 Sudoeste 0 -- -- 95
2020-03-21 05:00:00 4.3 6 Sudoeste 11 Sudoeste 0 -- -- 93
2020-03-21 04:00:00 5 4 Sudoeste 9 Este 0 -- -- 90
2020-03-21 03:00:00 6.6 0 Calma 15 Sudeste 0 -- -- 88
2020-03-21 02:00:00 7.7 13 Sudeste 17 Sudeste 0 -- -- 86
2020-03-21 01:00:00 8 10 Sudeste 24 Sudeste 0 -- -- 86
2020-03-21 00:00:00 8 11 Este 15 Este 0 -- -- 87
2020-03-20 23:00:00 8.7 11 Este 12 Este 0 -- -- 86
2020-03-20 22:00:00 9.2 8 Nordeste 21 Este 0 -- -- 84
2020-03-20 21:00:00 10.6 11 Sudeste 25 Sudeste 0 -- -- 77
2020-03-20 20:00:00 11.6 17 Sudeste 24 Este 0 -- -- 76
2020-03-20 19:00:00 13.2 15 Este 26 Sudeste 0 -- -- 70
2020-03-20 18:00:00 14.9 17 Sudeste 27 Sudeste 0 -- -- 62
2020-03-20 17:00:00 15.6 19 Sudeste 35 Este 0 -- -- 58
2020-03-20 16:00:00 15.7 19 Este 32 Este 0 -- -- 59
2020-03-20 15:00:00 15.4 21 Sudeste 32 Este 0 -- -- 62
2020-03-20 14:00:00 14.8 17 Este 27 Nordeste 0 -- -- 68
2020-03-20 13:00:00 14 17 Este 28 Nordeste 0 -- -- 72
2020-03-20 12:00:00 13.8 12 Nordeste 21 Nordeste 0 -- -- 73
2020-03-20 11:00:00 11.5 4 Nordeste 10 Este 0 -- -- 78
2020-03-20 10:00:00 9.7 2 Norte 6 Sudoeste 0 -- -- 80
2020-03-20 09:00:00 6.1 3 Sudoeste 10 Sudoeste 0 -- -- 92
2020-03-20 08:00:00 4.1 7 Sudoeste 12 Sudoeste 0 -- -- 95
2020-03-20 07:00:00 3.4 6 Sudoeste 10 Sudoeste 0 -- -- 95
2020-03-20 06:00:00 3.5 5 Sudoeste 10 Sudoeste 0 -- -- 94
2020-03-20 05:00:00 4.5 5 Sudoeste 8 Sudoeste 0 -- -- 90
2020-03-20 04:00:00 6.2 3 Sudeste 9 Este 0 -- -- 84
2020-03-20 03:00:00 6.4 0 Calma 10 Este 0 -- -- 85
2020-03-20 02:00:00 6.8 7 Este 13 Este 0 -- -- 84
2020-03-20 01:00:00 7.5 6 Este 21 Este 0 -- -- 82
2020-03-20 00:00:00 8.3 18 Este 23 Este 0 -- -- 79
2020-03-19 23:00:00 8.4 12 Este 18 Este 0 -- -- 82
2020-03-19 22:00:00 9.5 12 Sudeste 21 Sudeste 0 -- -- 78
2020-03-19 21:00:00 10.3 8 Este 12 Este 0 -- -- 74
2020-03-19 20:00:00 11.9 10 Este 15 Este 0 -- -- 67
2020-03-19 19:00:00 13.8 5 Este 22 Este 0 -- -- 59
2020-03-19 18:00:00 15.5 15 Este 32 Este 0 -- -- 55
2020-03-19 17:00:00 16.5 21 Nordeste 33 Nordeste 0 -- -- 51
2020-03-19 16:00:00 17 21 Nordeste 29 Nordeste 0 -- -- 55
2020-03-19 15:00:00 17.3 14 Este 23 Nordeste 0 -- -- 56
2020-03-19 14:00:00 16.6 10 Nordeste 21 Nordeste 0 -- -- 61
2020-03-19 13:00:00 15.1 6 Nordeste 12 Este 0 -- -- 68
2020-03-19 12:00:00 12.6 2 Nordeste 8 Nordeste 0 -- -- 76
2020-03-19 11:00:00 11.5 3 Nordeste 8 Nordeste 0 -- -- 79
2020-03-19 10:00:00 10.2 0 Calma 6 Nordeste 0 -- -- 83
2020-03-19 09:00:00 8.1 3 Sudoeste 6 Sudoeste 0 -- -- 92
2020-03-19 08:00:00 6.8 3 Sudoeste 8 Sudoeste 0 -- -- 95
2020-03-19 07:00:00 6.7 4 Sudoeste 8 Sudoeste 0 -- -- 96
2020-03-19 06:00:00 6.8 4 Sudoeste 8 Sudoeste 0 -- -- 95
2020-03-19 05:00:00 7.3 4 Sudoeste 6 Sudoeste 0 -- -- 95
2020-03-19 04:00:00 7.7 5 Sudoeste 9 Sudoeste 0 -- -- 95
2020-03-19 03:00:00 7.8 5 Sudoeste 10 Sudoeste 0 -- -- 95
2020-03-19 02:00:00 8.3 5 Sudoeste 10 Sudoeste 0 -- -- 94
2020-03-19 01:00:00 8.9 6 Sudoeste 10 Sudoeste 0 -- -- 93
2020-03-19 00:00:00 9.5 7 Sudoeste 10 Sudoeste 0 -- -- 92
2020-03-18 23:00:00 10.1 6 Sudoeste 9 Sudoeste 0 -- -- 90
2020-03-18 22:00:00 10.4 6 Sudoeste 9 Sudoeste 0 -- -- 89
2020-03-18 21:00:00 11 4 Sudoeste -- -- 0 -- -- 84
2020-03-18 20:00:00 12.3 2 Sudoeste 3 Sudoeste 0 -- -- 82
2020-03-18 19:00:00 13.7 0 Calma 4 Nordeste 0 -- -- 76
2020-03-18 18:00:00 14.4 2 Nordeste 13 Nordeste 0 -- -- 73
2020-03-18 17:00:00 15 5 Nordeste 14 Nordeste 0 -- -- 73
2020-03-18 16:00:00 15 8 Nordeste 16 Este 0 -- -- 72
2020-03-18 15:00:00 16 6 Nordeste 15 Nordeste 0 -- -- 73
2020-03-18 14:00:00 14 8 Nordeste 13 Nordeste 0 -- -- 80
2020-03-18 13:00:00 14.2 5 Nordeste 10 Este 0 -- -- 80
2020-03-18 12:00:00 12.6 2 Sudoeste 10 Sudoeste 0 -- -- 84
2020-03-18 11:00:00 11 4 Nordeste 10 Nordeste 0 -- -- 91
2020-03-18 10:00:00 10.7 0 Calma 5 Oeste 0 -- -- 91
2020-03-18 09:00:00 9.1 2 Oeste 12 Sudoeste 0 -- -- 95
2020-03-18 08:00:00 8 6 Sudoeste 10 Sudoeste 0 -- -- 96
2020-03-18 07:00:00 8.1 4 Sudoeste 8 Sudoeste 0 -- -- 97
2020-03-18 06:00:00 7.7 8 Sudoeste 10 Sudoeste 0 -- -- 96
2020-03-18 05:00:00 8 3 Sudoeste 5 Sudoeste 0 -- -- 95
2020-03-18 04:00:00 8.6 2 Sur 3 Sudeste 0 -- -- 95
2020-03-18 03:00:00 8.8 3 Sur 8 Sudoeste 0 -- -- 94
2020-03-18 02:00:00 8.9 6 Sudoeste 9 Sudoeste 0 -- -- 94
2020-03-18 01:00:00 9.4 3 Sur 8 Noroeste 0 -- -- 93
2020-03-18 00:00:00 9.7 6 Sudoeste 10 Sudoeste 0 -- -- 92
2020-03-17 23:00:00 10.6 2 Sudoeste 5 Nordeste 0 -- -- 88
2020-03-17 22:00:00 11.6 3 Nordeste 5 Norte 0 -- -- 86
2020-03-17 21:00:00 12.1 3 Norte 6 Norte 0 -- -- 84
2020-03-17 20:00:00 13 4 Este 11 Sudeste 0 -- -- 82
2020-03-17 19:00:00 13.9 9 Sudeste 28 Este 0 -- -- 76
2020-03-17 18:00:00 14.5 19 Este 32 Este 0 -- -- 73
2020-03-17 17:00:00 15.3 22 Este 36 Este 0 -- -- 72
2020-03-17 16:00:00 15.1 22 Este 32 Este 0 -- -- 73
2020-03-17 15:00:00 15.2 18 Este 29 Este 0 -- -- 75
2020-03-17 14:00:00 13.7 16 Este 23 Este 0 -- -- 86
2020-03-17 13:00:00 12.2 9 Nordeste 14 Nordeste 0 -- -- 94
2020-03-17 12:00:00 11.5 3 Nordeste 9 Nordeste 0 -- -- 92
2020-03-17 11:00:00 11.5 3 Nordeste 5 Nordeste 0 -- -- 92
2020-03-17 10:00:00 11.2 2 Norte 4 Norte 0 -- -- 96
2020-03-17 09:00:00 10.7 0 Calma 4 Nordeste 0 -- -- 96
2020-03-17 08:00:00 10.5 3 Norte 5 Norte 0 -- -- 97
2020-03-17 07:00:00 10.5 2 Norte 6 Nordeste 0 -- -- 97
2020-03-17 06:00:00 10.4 0 Calma 6 Nordeste 0.8 -- -- 97
2020-03-17 05:00:00 10.2 3 Nordeste 5 Nordeste 0.2 -- -- 97
2020-03-17 04:00:00 10 2 Nordeste 4 Nordeste 0 -- -- 97
2020-03-17 03:00:00 9.7 0 Calma 5 Noroeste 0 -- -- 98
2020-03-17 02:00:00 9.6 0 Calma 3 Nordeste 0.2 -- -- 97
2020-03-17 01:00:00 9.4 3 Nordeste 8 Este 0 -- -- 98
2020-03-17 00:00:00 8.8 4 Sudoeste 9 Sudoeste 0.2 -- -- 97
2020-03-16 23:00:00 8.7 4 Sudoeste 10 Sudoeste 1 -- -- 97
2020-03-16 22:00:00 8.2 10 Sudoeste 15 Sudoeste 2.2 -- -- 97
2020-03-16 21:00:00 8 12 Sudoeste 18 Sudoeste 2.2 -- -- 97
2020-03-16 20:00:00 7.8 11 Sudoeste 19 Sudoeste 3.6 -- -- 96
2020-03-16 19:00:00 7.8 10 Sudoeste 22 Sudoeste 1.4 -- -- 96
2020-03-16 18:00:00 7.6 11 Sudoeste 18 Sudoeste 0.4 -- -- 96
2020-03-16 17:00:00 7.1 13 Oeste 21 Oeste 1.2 -- -- 96
2020-03-16 16:00:00 7 11 Oeste 22 Oeste 0.6 -- -- 96
2020-03-16 15:00:00 6.7 7 Oeste 25 Oeste 1 -- -- 95
2020-03-16 14:00:00 6.5 9 Oeste 37 Oeste 3 -- -- 94
2020-03-16 13:00:00 8.3 21 Oeste 36 Nordeste 0 -- -- 80
2020-03-16 12:00:00 12.4 25 Nordeste 39 Este 0.2 -- -- 79
2020-03-16 11:00:00 11.5 21 Nordeste 31 Nordeste 0 -- -- 85
2020-03-16 10:00:00 11.6 17 Este 26 Este 0 -- -- 87
2020-03-16 09:00:00 10.9 17 Este 27 Este 0 -- -- 88
2020-03-16 08:00:00 10.2 8 Este 20 Este 0 -- -- 96
2020-03-16 07:00:00 9.8 8 Nordeste 22 Este 0.8 -- -- 94
2020-03-16 06:00:00 10 16 Este 23 Este 1.6 -- -- 92
2020-03-16 05:00:00 10.2 11 Este 18 Sudeste 0.4 -- -- 89
2020-03-16 04:00:00 10.8 8 Nordeste 22 Este 1 -- -- 91
2020-03-16 03:00:00 11.2 8 Este 15 Sudeste 0.6 -- -- 91
2020-03-16 02:00:00 11.3 8 Sudeste 11 Sudeste 0.4 -- -- 91
2020-03-16 01:00:00 12 7 Noroeste 49 Oeste 1.4 -- -- 87
2020-03-16 00:00:00 14.8 17 Sudoeste 56 Sur 0 -- -- 62
2020-03-15 23:00:00 15 33 Sur 51 Sur 0.2 -- -- 62
2020-03-15 22:00:00 12.9 4 Norte 10 Nordeste 0 -- -- 82
2020-03-15 21:00:00 13.7 0 Calma 7 Este 0 -- -- 78
2020-03-15 20:00:00 14.1 3 Noroeste 14 Sudoeste 0 -- -- 76
2020-03-15 19:00:00 15.1 8 Oeste 15 Norte 0 -- -- 72
2020-03-15 18:00:00 16.9 6 Norte 30 Nordeste 0 -- -- 66
2020-03-15 17:00:00 19.1 8 Norte 28 Nordeste 0 -- -- 60
2020-03-15 16:00:00 20.1 5 Oeste 22 Nordeste 0 -- -- 57
2020-03-15 15:00:00 19 10 Nordeste 24 Este 0 -- -- 56
2020-03-15 14:00:00 18.3 16 Nordeste 24 Nordeste 0 -- -- 57
2020-03-15 13:00:00 16 11 Este 18 Este 0 -- -- 61
2020-03-15 12:00:00 14.4 6 Nordeste 12 Nordeste 0 -- -- 57
2020-03-15 11:00:00 12.5 3 Nordeste 12 Nordeste 0 -- -- 70
2020-03-15 10:00:00 11.4 2 Norte 6 Noroeste 0 -- -- 55
2020-03-15 09:00:00 8.5 2 Norte 5 Oeste 0 -- -- 65
2020-03-15 08:00:00 4.6 4 Sudoeste 6 Sudoeste 0 -- -- 69
2020-03-15 07:00:00 4.2 3 Sudoeste -- -- 0 -- -- 72
2020-03-15 06:00:00 5.2 4 Sudoeste 8 Sudoeste 0 -- -- 63
2020-03-15 05:00:00 5.9 0 Calma 9 Sudoeste 0 -- -- 60
2020-03-15 04:00:00 6.2 6 Sudoeste 9 Sudoeste 0 -- -- 58
2020-03-15 03:00:00 6.5 2 Norte 10 Sudoeste 0 -- -- 58
2020-03-15 02:00:00 7.3 9 Sudoeste 15 Sudoeste 0 -- -- 54
2020-03-15 01:00:00 7.5 9 Sudoeste 15 Sudoeste 0 -- -- 54
2020-03-15 00:00:00 8.5 9 Sudoeste 19 Sudoeste 0 -- -- 51
2020-03-14 23:00:00 9.7 10 Sudoeste 18 Sudoeste 0 -- -- 47
2020-03-14 22:00:00 10 12 Sudoeste 17 Sudoeste 0 -- -- 47
2020-03-14 21:00:00 11.6 9 Sudoeste 13 Sudoeste 0 -- -- 44
2020-03-14 20:00:00 14.9 3 Sudoeste 4 Sudoeste 0 -- -- 34
2020-03-14 19:00:00 17.6 2 Noroeste 14 Norte 0 -- -- 32
2020-03-14 18:00:00 20.5 7 Norte 19 Noroeste 0 -- -- 28
2020-03-14 17:00:00 21.4 7 Noroeste 21 Norte 0 -- -- 25
2020-03-14 16:00:00 21.8 7 Norte 21 Norte 0 -- -- 24
2020-03-14 15:00:00 21.2 8 Norte 21 Norte 0 -- -- 26
2020-03-14 14:00:00 20.5 6 Noroeste 23 Norte 0 -- -- 26
2020-03-14 13:00:00 19 6 Noroeste 25 Noroeste 0 -- -- 29
2020-03-14 12:00:00 17.1 8 Noroeste 22 Oeste 0 -- -- 35
2020-03-14 11:00:00 15.8 5 Noroeste 21 Noroeste 0 -- -- 48
2020-03-14 10:00:00 13.3 3 Noroeste 15 Oeste 0 -- -- 58
2020-03-14 09:00:00 10.6 6 Oeste 20 Noroeste 0 -- -- 65
2020-03-14 08:00:00 8.3 9 Oeste 21 Oeste 0 -- -- 72
2020-03-14 07:00:00 7.6 15 Oeste 23 Oeste 0 -- -- 75
2020-03-14 06:00:00 7.9 14 Oeste 23 Oeste 0 -- -- 76
2020-03-14 05:00:00 8.6 8 Oeste 18 Oeste 0 -- -- 74
2020-03-14 04:00:00 8.6 9 Oeste 19 Sudoeste 0 -- -- 74
2020-03-14 03:00:00 9.2 12 Sudoeste 18 Oeste 0 -- -- 74
2020-03-14 02:00:00 9.8 6 Oeste 14 Oeste 0 -- -- 73
2020-03-14 01:00:00 10.7 10 Oeste 17 Oeste 0 -- -- 70
2020-03-14 00:00:00 10.7 11 Oeste 18 Oeste 0 -- -- 70
2020-03-13 23:00:00 11.5 9 Oeste 28 Noroeste 0 -- -- 68
2020-03-13 22:00:00 12.2 8 Oeste 19 Oeste 0 -- -- 68
2020-03-13 21:00:00 13.1 12 Oeste 21 Noroeste 0 -- -- 68
2020-03-13 20:00:00 14.8 7 Noroeste 18 Noroeste 0 -- -- 64
2020-03-13 19:00:00 16.2 2 Noroeste 9 Norte 0 -- -- 57
2020-03-13 18:00:00 17.5 3 Norte 13 Noroeste 0 -- -- 53
2020-03-13 17:00:00 19.3 4 Noroeste 14 Noroeste 0 -- -- 48
2020-03-13 16:00:00 20.3 5 Noroeste 19 Norte 0 -- -- 46
2020-03-13 15:00:00 20.2 5 Norte 19 Norte 0 -- -- 47
2020-03-13 14:00:00 18.5 6 Este 14 Noroeste 0 -- -- 51
2020-03-13 13:00:00 19.2 4 Norte 15 Oeste 0 -- -- 49
2020-03-13 12:00:00 17.6 5 Noroeste 17 Oeste 0 -- -- 52
2020-03-13 11:00:00 16.2 5 Noroeste 20 Noroeste 0 -- -- 56
2020-03-13 10:00:00 14.4 6 Oeste 16 Noroeste 0 -- -- 64
2020-03-13 09:00:00 12.8 10 Oeste 20 Oeste 0 -- -- 71
2020-03-13 08:00:00 10.5 9 Oeste 18 Oeste 0 -- -- 79
2020-03-13 07:00:00 10.4 10 Oeste 14 Oeste 0 -- -- 80
2020-03-13 06:00:00 10.6 9 Oeste 20 Sudoeste 0 -- -- 79
2020-03-13 05:00:00 11 13 Oeste 22 Oeste 0 -- -- 77
2020-03-13 04:00:00 11.2 13 Oeste 20 Oeste 0 -- -- 79
2020-03-13 03:00:00 11.4 10 Oeste 17 Oeste 0 -- -- 79
2020-03-13 02:00:00 12.1 11 Oeste 20 Oeste 0 -- -- 76
2020-03-13 01:00:00 12.5 13 Sudoeste 20 Oeste 0 -- -- 76
2020-03-13 00:00:00 13.2 12 Sudoeste 18 Oeste 0 -- -- 75
2020-03-12 23:00:00 14.4 9 Oeste 32 Noroeste 0 -- -- 73
2020-03-12 22:00:00 16 13 Noroeste 32 Noroeste 0 -- -- 66
2020-03-12 21:00:00 18.1 8 Noroeste 27 Noroeste 0 -- -- 64
2020-03-12 20:00:00 19.7 8 Noroeste 20 Noroeste 0 -- -- 56
2020-03-12 19:00:00 21.5 3 Noroeste 10 Oeste 0 -- -- 51
2020-03-12 18:00:00 23.6 2 Noroeste 11 Noroeste 0 -- -- 45
2020-03-12 17:00:00 24.9 4 Norte 13 Este 0 -- -- 42
2020-03-12 16:00:00 24.4 5 Este 11 Este 0 -- -- 40
2020-03-12 15:00:00 24.1 6 Nordeste 11 Nordeste 0 -- -- 42
2020-03-12 14:00:00 22.3 6 Nordeste 12 Nordeste 0 -- -- 44
2020-03-12 13:00:00 21 3 Nordeste 10 Nordeste 0 -- -- 50
2020-03-12 12:00:00 18.9 3 Norte 11 Nordeste 0 -- -- 56
2020-03-12 11:00:00 17 4 Nordeste 9 Nordeste 0 -- -- 61
2020-03-12 10:00:00 15.1 3 Norte 7 Nordeste 0 -- -- 67
2020-03-12 09:00:00 13 0 Calma 6 Sudoeste 0 -- -- 71
2020-03-12 08:00:00 9.4 4 Sur 6 Sudoeste 0 -- -- 79
2020-03-12 07:00:00 10.3 0 Calma 6 Este 0 -- -- 75
2020-03-12 06:00:00 10.3 3 Sudoeste 9 Sudoeste 0 -- -- 74
2020-03-12 05:00:00 10 6 Sudoeste 8 Sudoeste 0 -- -- 76
2020-03-12 04:00:00 11.2 5 Sudoeste 9 Sudoeste 0 -- -- 71
2020-03-12 03:00:00 11.8 3 Sudoeste 6 Sudoeste 0 -- -- 70
2020-03-12 02:00:00 12.8 0 Calma 5 Sudoeste 0 -- -- 66
2020-03-12 01:00:00 14 4 Sudoeste 9 Sudoeste 0 -- -- 62
2020-03-12 00:00:00 14.8 6 Sudoeste 8 Sudoeste 0 -- -- 59
2020-03-11 23:00:00 15.3 6 Sudoeste 10 Sudoeste 0 -- -- 58
2020-03-11 22:00:00 16.6 8 Sudoeste 11 Sudoeste 0 -- -- 53
2020-03-11 21:00:00 18.5 6 Sudoeste 9 Sudoeste 0 -- -- 48
2020-03-11 20:00:00 20.2 4 Sudoeste 11 Sudeste 0 -- -- 41
2020-03-11 19:00:00 21.6 8 Sudeste 10 Este 0 -- -- 39
2020-03-11 18:00:00 23.5 6 Este 14 Este 0 -- -- 37
2020-03-11 17:00:00 25 10 Este 14 Este 0 -- -- 35
2020-03-11 16:00:00 25.9 5 Nordeste 13 Nordeste 0 -- -- 34
2020-03-11 15:00:00 26.6 4 Norte 12 Norte 0 -- -- 32
2020-03-11 14:00:00 26.4 5 Norte 14 Noroeste 0 -- -- 35
2020-03-11 13:00:00 25.1 5 Norte 18 Norte 0 -- -- 36
2020-03-11 12:00:00 23.4 7 Noroeste 20 Oeste 0 -- -- 40
2020-03-11 11:00:00 21.5 4 Noroeste 19 Oeste 0 -- -- 42
2020-03-11 10:00:00 18.2 10 Oeste 19 Oeste 0 -- -- 49
2020-03-11 09:00:00 14.1 14 Sudoeste 21 Sudoeste 0 -- -- 57
2020-03-11 08:00:00 10.7 15 Sudoeste 22 Sudoeste 0 -- -- 64
2020-03-11 07:00:00 11.3 17 Sudoeste 23 Sudoeste 0 -- -- 60
2020-03-11 06:00:00 12.5 15 Sudoeste 21 Sudoeste 0 -- -- 49
2020-03-11 05:00:00 13.2 13 Sudoeste 25 Sudoeste 0 -- -- 46
2020-03-11 04:00:00 13.2 17 Sudoeste 22 Sudoeste 0 -- -- 51
2020-03-11 03:00:00 13.5 17 Sudoeste 22 Sudoeste 0 -- -- 54
2020-03-11 02:00:00 14.5 13 Sudoeste 21 Oeste 0 -- -- 52
2020-03-11 01:00:00 14.6 12 Oeste 19 Oeste 0 -- -- 52
2020-03-11 00:00:00 15.4 16 Sudoeste 24 Oeste 0 -- -- 49
2020-03-10 23:00:00 16.4 14 Oeste 29 Oeste 0 -- -- 46
2020-03-10 22:00:00 15.5 13 Sudoeste 19 Sudoeste 0 -- -- 52
2020-03-10 21:00:00 16.4 12 Sudoeste 16 Sudoeste 0 -- -- 49
2020-03-10 20:00:00 17.6 8 Sudoeste 12 Sudoeste 0 -- -- 45
2020-03-10 19:00:00 19.7 2 Sur 13 Norte 0 -- -- 40
2020-03-10 18:00:00 23 3 Noroeste 16 Norte 0 -- -- 35
2020-03-10 17:00:00 24.1 5 Noroeste 25 Norte 0 -- -- 31
2020-03-10 16:00:00 25.3 6 Noroeste 24 Noroeste 0 -- -- 29
2020-03-10 15:00:00 24.8 8 Noroeste 30 Oeste 0 -- -- 27
2020-03-10 14:00:00 23.4 9 Noroeste 30 Noroeste 0 -- -- 24
2020-03-10 13:00:00 22.2 8 Noroeste 24 Oeste 0 -- -- 28
2020-03-10 12:00:00 20.5 8 Noroeste 26 Oeste 0 -- -- 32
2020-03-10 11:00:00 18.5 10 Noroeste 33 Noroeste 0 -- -- 35
2020-03-10 10:00:00 16.8 8 Noroeste 21 Noroeste 0 -- -- 40
2020-03-10 09:00:00 11.9 5 Oeste 11 Oeste 0 -- -- 50
2020-03-10 08:00:00 8.8 2 Sudoeste 8 Oeste 0 -- -- 54
2020-03-10 07:00:00 9.5 4 Noroeste 10 Oeste 0 -- -- 50
2020-03-10 06:00:00 10.5 5 Oeste 33 Oeste 0 -- -- 48
2020-03-10 05:00:00 11.2 22 Oeste 45 Oeste 0 -- -- 47
2020-03-10 04:00:00 9.8 20 Oeste 32 Oeste 0 -- -- 56
2020-03-10 03:00:00 9.3 20 Oeste 31 Oeste 0 -- -- 63
2020-03-10 02:00:00 9 17 Oeste 30 Oeste 0 -- -- 63
2020-03-10 01:00:00 9.1 14 Sudoeste 41 Oeste 0 -- -- 64
2020-03-10 00:00:00 9.2 24 Oeste 50 Noroeste 0 -- -- 65
2020-03-09 23:00:00 9.4 22 Noroeste 49 Oeste 0 -- -- 65
2020-03-09 22:00:00 9.7 20 Noroeste 48 Noroeste 0 -- -- 65
2020-03-09 21:00:00 10 12 Noroeste 41 Norte 0 -- -- 65
2020-03-09 20:00:00 10.9 17 Noroeste 44 Norte 0 -- -- 62
2020-03-09 19:00:00 11.9 14 Noroeste 47 Noroeste 0 -- -- 57
2020-03-09 18:00:00 14.1 18 Noroeste 48 Noroeste 0 -- -- 50
2020-03-09 17:00:00 15.2 19 Noroeste 52 Oeste 0 -- -- 47
2020-03-09 16:00:00 15.6 19 Noroeste 54 Noroeste 0 -- -- 44
2020-03-09 15:00:00 16.4 19 Noroeste 50 Noroeste 0 -- -- 43
2020-03-09 14:00:00 16.1 17 Noroeste 45 Noroeste 0 -- -- 44
2020-03-09 13:00:00 15.6 15 Noroeste 51 Noroeste 0 -- -- 47
2020-03-09 12:00:00 14.8 15 Noroeste 37 Oeste 0 -- -- 48
2020-03-09 11:00:00 12.8 13 Noroeste 43 Noroeste 0 -- -- 52
2020-03-09 10:00:00 11.9 11 Noroeste 36 Norte 0 -- -- 56
2020-03-09 09:00:00 10.9 14 Noroeste 30 Oeste 0 -- -- 60
2020-03-09 08:00:00 9.2 9 Noroeste 32 Noroeste 0 -- -- 66
2020-03-09 07:00:00 9.3 10 Noroeste 33 Noroeste 0 -- -- 70
2020-03-09 06:00:00 10.2 14 Oeste 32 Noroeste 0 -- -- 69
2020-03-09 05:00:00 10.4 12 Noroeste 32 Oeste 0 -- -- 70
2020-03-09 04:00:00 10.4 14 Oeste 31 Oeste 0 -- -- 73
2020-03-09 03:00:00 10.5 18 Oeste 36 Oeste 0 -- -- 71
2020-03-09 02:00:00 10.8 19 Oeste 35 Oeste 0 -- -- 71
2020-03-09 01:00:00 11.8 21 Oeste 37 Oeste 0 -- -- 64
2020-03-09 00:00:00 11.8 21 Oeste 28 Sudoeste 0 -- -- 61
2020-03-08 23:00:00 11.3 12 Oeste 18 Oeste 0 -- -- 63
2020-03-08 22:00:00 11.3 8 Sudoeste 12 Sudoeste 0 -- -- 61
2020-03-08 21:00:00 12.4 8 Sudoeste 13 Sudoeste 0 -- -- 55
2020-03-08 20:00:00 14.1 5 Sudoeste 10 Oeste 0 -- -- 48
2020-03-08 19:00:00 16.1 0 Calma 9 Noroeste 0 -- -- 43
2020-03-08 18:00:00 18 2 Noroeste 13 Noroeste 0 -- -- 42
2020-03-08 17:00:00 19.6 5 Noroeste 15 Noroeste 0 -- -- 34
2020-03-08 16:00:00 21.1 5 Noroeste 24 Oeste 0 -- -- 33
2020-03-08 15:00:00 21.6 7 Oeste 27 Oeste 0 -- -- 32
2020-03-08 14:00:00 21.2 16 Oeste 28 Oeste 0 -- -- 34
2020-03-08 13:00:00 19.3 5 Noroeste 15 Norte 0 -- -- 38
2020-03-08 12:00:00 17.7 5 Noroeste 24 Noroeste 0 -- -- 45
2020-03-08 11:00:00 16.2 9 Noroeste 26 Oeste 0 -- -- 45
2020-03-08 10:00:00 13 3 Nordeste 6 Nordeste 0 -- -- 56
2020-03-08 09:00:00 9.4 0 Calma 6 Oeste 0 -- -- 68
2020-03-08 08:00:00 4.9 3 Oeste 10 Sudoeste 0 -- -- 81
2020-03-08 07:00:00 4.5 4 Sudoeste 12 Sudoeste 0 -- -- 82
2020-03-08 06:00:00 4.9 5 Sudoeste 13 Oeste 0 -- -- 82
2020-03-08 05:00:00 5 4 Sudoeste 9 Sudoeste 0 -- -- 80
2020-03-08 04:00:00 6 4 Sudoeste 9 Sudoeste 0 -- -- 75
2020-03-08 03:00:00 7.4 4 Sudoeste 13 Sudoeste 0 -- -- 72
2020-03-08 02:00:00 8.4 8 Oeste 21 Oeste 0 -- -- 68
2020-03-08 01:00:00 9.4 14 Sudoeste 33 Oeste 0 -- -- 65
2020-03-08 00:00:00 10 21 Oeste 30 Oeste 0 -- -- 65
2020-03-07 23:00:00 10.2 14 Sudoeste 33 Oeste 0 -- -- 66
2020-03-07 22:00:00 10.6 17 Oeste 33 Noroeste 0 -- -- 66
2020-03-07 21:00:00 10.9 21 Oeste 41 Oeste 0 -- -- 65
2020-03-07 20:00:00 11.5 17 Noroeste 46 Noroeste 0 -- -- 65
2020-03-07 19:00:00 12.7 22 Oeste 44 Oeste 0 -- -- 60
2020-03-07 18:00:00 15 16 Noroeste 52 Noroeste 0 -- -- 53
2020-03-07 17:00:00 15.7 17 Noroeste 56 Noroeste 0 -- -- 51
2020-03-07 16:00:00 16.6 18 Noroeste 55 Noroeste 0 -- -- 48
2020-03-07 15:00:00 16.4 24 Noroeste 58 Noroeste 0 -- -- 48
2020-03-07 14:00:00 15.7 22 Noroeste 67 Noroeste 0 -- -- 50
2020-03-07 13:00:00 14.9 20 Noroeste 49 Noroeste 0 -- -- 51
2020-03-07 12:00:00 13.9 22 Noroeste 54 Oeste 0 -- -- 54
2020-03-07 11:00:00 12.6 21 Noroeste 53 Oeste 0 -- -- 57
2020-03-07 10:00:00 10.1 26 Oeste 57 Oeste 0 -- -- 64
2020-03-07 09:00:00 9.5 33 Oeste 59 Oeste 0 -- -- 61
2020-03-07 08:00:00 7.1 28 Oeste 45 Oeste 0 -- -- 66
2020-03-07 07:00:00 6.3 29 Oeste 43 Oeste 0 -- -- 69
2020-03-07 06:00:00 6.3 22 Oeste 54 Oeste 0 -- -- 70
2020-03-07 05:00:00 6 22 Oeste 39 Oeste 0 -- -- 72
2020-03-07 04:00:00 6.1 18 Noroeste 40 Oeste 0 -- -- 70
2020-03-07 03:00:00 5.8 23 Oeste 40 Oeste 0 -- -- 68
2020-03-07 02:00:00 5.6 20 Oeste 43 Oeste 0 -- -- 67
2020-03-07 01:00:00 5.7 21 Oeste 38 Oeste 0 -- -- 65
2020-03-07 00:00:00 5.6 16 Oeste 32 Oeste 0 -- -- 69
2020-03-06 23:00:00 6.2 13 Oeste 35 Noroeste 0 -- -- 67
2020-03-06 22:00:00 6.3 12 Noroeste 42 Noroeste 0 -- -- 67
2020-03-06 21:00:00 6.9 14 Noroeste 38 Norte 0 -- -- 63
2020-03-06 20:00:00 7.3 11 Noroeste 43 Noroeste 0 -- -- 62
2020-03-06 19:00:00 7.6 17 Noroeste 44 Noroeste 0 -- -- 61
2020-03-06 18:00:00 9.2 17 Noroeste 52 Norte 0 -- -- 58
2020-03-06 17:00:00 10.7 19 Noroeste 58 Noroeste 0 -- -- 48
2020-03-06 16:00:00 11.9 21 Noroeste 57 Norte 0 -- -- 46
2020-03-06 15:00:00 12.3 21 Noroeste 64 Noroeste 0 -- -- 48
2020-03-06 14:00:00 11.7 22 Noroeste 72 Norte 0 -- -- 46
2020-03-06 13:00:00 11.6 17 Noroeste 57 Oeste 0 -- -- 55
2020-03-06 12:00:00 9.8 19 Noroeste 58 Noroeste 0 -- -- 69
2020-03-06 11:00:00 6.3 21 Noroeste 46 Noroeste 0.2 -- -- 87
2020-03-06 10:00:00 6.3 11 Noroeste 55 Norte 1.2 -- -- 84
2020-03-06 09:00:00 10.2 11 Noroeste 31 Oeste 0 -- -- 64
2020-03-06 08:00:00 8.5 18 Oeste 39 Oeste 0 -- -- 66
2020-03-06 07:00:00 7.7 12 Oeste 22 Oeste 0 -- -- 68
2020-03-06 06:00:00 7.3 15 Oeste 28 Oeste 0 -- -- 69
2020-03-06 05:00:00 7.6 21 Oeste 31 Oeste 0 -- -- 68
2020-03-06 04:00:00 8.6 8 Sudoeste 18 Sudoeste 0 -- -- 68
2020-03-06 03:00:00 8.2 9 Sudoeste 16 Oeste 0 -- -- 69
2020-03-06 02:00:00 8 12 Oeste 22 Oeste 0 -- -- 70
2020-03-06 01:00:00 7.9 16 Oeste 27 Oeste 0 -- -- 71
2020-03-06 00:00:00 8.9 17 Oeste 29 Oeste 0 -- -- 69
2020-03-05 23:00:00 9.6 11 Noroeste 30 Noroeste 0 -- -- 68
2020-03-05 22:00:00 9.8 12 Noroeste 43 Oeste 0 -- -- 72
2020-03-05 21:00:00 10.4 27 Oeste 40 Oeste 0 -- -- 80
2020-03-05 20:00:00 12.6 15 Noroeste 34 Noroeste 0 -- -- 62
2020-03-05 19:00:00 13.8 10 Noroeste 33 Noroeste 0 -- -- 56
2020-03-05 18:00:00 16.2 12 Noroeste 59 Oeste 0 -- -- 49
2020-03-05 17:00:00 19.1 33 Oeste 67 Oeste 0 -- -- 34
2020-03-05 16:00:00 20.1 26 Oeste 70 Oeste 0 -- -- 33
2020-03-05 15:00:00 17.6 48 Oeste 82 Oeste 0 -- -- 38
2020-03-05 14:00:00 15.8 36 Oeste 89 Oeste 0 -- -- 52
2020-03-05 13:00:00 18.6 30 Oeste 50 Oeste 0 -- -- 52
2020-03-05 12:00:00 19.8 16 Noroeste 35 Oeste 0 -- -- 50
2020-03-05 11:00:00 17.9 26 Sudoeste 38 Sudoeste 0 -- -- 50
2020-03-05 10:00:00 15.8 18 Oeste 36 Oeste 0 -- -- 57
2020-03-05 09:00:00 15 19 Oeste 32 Oeste 0 -- -- 59
2020-03-05 08:00:00 14.9 18 Oeste 32 Sudoeste 0 -- -- 58
2020-03-05 07:00:00 13.5 11 Oeste 20 Oeste 0 -- -- 62
2020-03-05 06:00:00 13.4 7 Oeste 17 Sur 0 -- -- 60
2020-03-05 05:00:00 12.8 11 Sudoeste 25 Sudoeste 0 -- -- 61
2020-03-05 04:00:00 13.3 17 Sudoeste 31 Sudoeste 0 -- -- 60
2020-03-05 03:00:00 13.8 20 Sudoeste 27 Sudoeste 0 -- -- 57
2020-03-05 02:00:00 13.6 13 Sudoeste 26 Sudoeste 0 -- -- 59
2020-03-05 01:00:00 14.4 19 Sudoeste 26 Sudoeste 0 -- -- 58
2020-03-05 00:00:00 14.9 15 Sudoeste 24 Sudoeste 0 -- -- 55
2020-03-04 23:00:00 15.4 19 Sudoeste 29 Sudoeste 0 -- -- 54
2020-03-04 22:00:00 15.5 19 Sudoeste 28 Oeste 0 -- -- 53
2020-03-04 21:00:00 15.7 18 Sudoeste 31 Sudoeste 0 -- -- 53
2020-03-04 20:00:00 16.3 18 Oeste 24 Oeste 0 -- -- 54
2020-03-04 19:00:00 17.8 12 Oeste 24 Oeste 0 -- -- 49
2020-03-04 18:00:00 21 11 Noroeste 32 Oeste 0 -- -- 43
2020-03-04 17:00:00 22.2 9 Noroeste 40 Oeste 0 -- -- 40
2020-03-04 16:00:00 23.2 14 Oeste 31 Oeste 0 -- -- 41
2020-03-04 15:00:00 22.8 11 Noroeste 37 Noroeste 0 -- -- 44
2020-03-04 14:00:00 21.6 8 Noroeste 20 Norte 0 -- -- 52
2020-03-04 13:00:00 19.7 7 Noroeste 21 Norte 0 -- -- 54
2020-03-04 12:00:00 16.7 6 Norte 15 Noroeste 0 -- -- 61
2020-03-04 11:00:00 14.1 2 Norte 6 Nordeste 0 -- -- 65
2020-03-04 10:00:00 12 3 Sudoeste 6 Oeste 0 -- -- 74
2020-03-04 09:00:00 9.7 3 Sudoeste 10 Sudoeste 0 -- -- 79
2020-03-04 08:00:00 8.4 6 Sudoeste 13 Sudoeste 0 -- -- 81
2020-03-04 07:00:00 8.5 10 Sudoeste 14 Sudoeste 0 -- -- 80
2020-03-04 06:00:00 8.5 9 Sudoeste 15 Sudoeste 0 -- -- 79
2020-03-04 05:00:00 9.2 6 Sudoeste 12 Sudoeste 0 -- -- 76
2020-03-04 04:00:00 8.8 10 Sudoeste 15 Sudoeste 0 -- -- 78
2020-03-04 03:00:00 9.3 9 Oeste 18 Sudoeste 0 -- -- 76
2020-03-04 02:00:00 9.8 13 Oeste 20 Oeste 0 -- -- 74
2020-03-04 01:00:00 10.3 13 Sudoeste 22 Noroeste 0 -- -- 71
2020-03-04 00:00:00 11 8 Noroeste 24 Noroeste 0 -- -- 68